createdAt,value
2022-12-12T00:01:37.465Z,16.77
2022-12-12T00:06:34.335Z,14.23
2022-12-12T00:11:31.956Z,17.75
2022-12-12T00:16:28.986Z,16.55
2022-12-12T00:21:28.556Z,15.57
2022-12-12T00:26:28.700Z,17.25
2022-12-12T00:31:26.828Z,17.20
2022-12-12T00:36:25.954Z,17.20
2022-12-12T00:41:23.359Z,16.75
2022-12-12T00:46:23.135Z,15.93
2022-12-12T00:51:22.835Z,17.92
2022-12-12T00:56:21.775Z,16.25
2022-12-12T01:01:22.923Z,18.23
2022-12-12T01:06:21.017Z,18.83
2022-12-12T01:11:18.957Z,17.05
2022-12-12T01:16:15.958Z,18.65
2022-12-12T01:21:15.164Z,18.42
2022-12-12T01:26:14.701Z,16.58
2022-12-12T01:31:12.414Z,17.10
2022-12-12T01:36:09.449Z,18.45
2022-12-12T01:41:06.513Z,17.95
2022-12-12T01:46:33.947Z,14.20
2022-12-12T01:51:31.582Z,18.98
2022-12-12T01:56:28.947Z,18.25
2022-12-12T02:01:26.134Z,14.88
2022-12-12T02:06:26.440Z,19.58
2022-12-12T02:11:23.363Z,16.10
2022-12-12T02:16:34.422Z,16.02
2022-12-12T02:21:40.682Z,15.80
2022-12-12T02:27:13.584Z,19.05
2022-12-12T02:32:23.755Z,19.33
2022-12-12T02:37:30.122Z,21.10
2022-12-12T02:42:31.452Z,17.27
2022-12-12T02:47:33.076Z,14.80
2022-12-12T02:52:30.293Z,16.88
2022-12-12T02:57:27.628Z,17.17
2022-12-12T03:02:45.653Z,18.15
2022-12-12T03:07:53.041Z,18.63
2022-12-12T03:12:59.760Z,16.10
2022-12-12T03:18:09.806Z,16.65
2022-12-12T03:23:13.592Z,16.83
2022-12-12T03:28:15.501Z,17.67
2022-12-12T03:33:20.082Z,18.08
2022-12-12T03:38:20.461Z,16.75
2022-12-12T03:43:21.684Z,13.75
2022-12-12T03:48:23.585Z,17.58
2022-12-12T03:53:27.244Z,18.52
2022-12-12T03:58:29.752Z,17.70
2022-12-12T04:03:34.403Z,14.32
2022-12-12T04:08:32.252Z,15.13
2022-12-12T04:13:34.195Z,15.50
2022-12-12T04:18:44.163Z,15.55
2022-12-12T04:23:54.491Z,13.57
2022-12-12T04:29:03.904Z,18.23
2022-12-12T04:34:07.854Z,20.05
2022-12-12T04:39:06.993Z,18.38
2022-12-12T04:44:09.735Z,15.82
2022-12-12T04:49:13.969Z,15.07
2022-12-12T04:54:16.075Z,15.50
2022-12-12T04:59:13.158Z,12.80
2022-12-12T05:04:17.780Z,14.73
2022-12-12T05:09:17.219Z,15.07
2022-12-12T05:14:15.842Z,24.92
2022-12-12T05:19:14.215Z,13.23
2022-12-12T05:24:16.210Z,14.98
2022-12-12T05:29:13.344Z,16.13
2022-12-12T05:34:10.203Z,14.57
2022-12-12T05:39:08.042Z,16.10
2022-12-12T05:44:06.182Z,16.00
2022-12-12T05:49:03.236Z,16.42
2022-12-12T05:54:00.095Z,16.27
2022-12-12T05:58:57.885Z,14.68
2022-12-12T06:03:55.053Z,18.35
2022-12-12T06:08:55.400Z,18.42
2022-12-12T06:13:52.542Z,15.20
2022-12-12T06:19:01.962Z,15.02
2022-12-12T06:24:04.938Z,18.23
2022-12-12T06:29:04.789Z,19.13
2022-12-12T06:34:02.778Z,17.85
2022-12-12T06:39:01.207Z,16.55
2022-12-12T06:43:58.855Z,14.27
2022-12-12T06:48:56.915Z,16.30
2022-12-12T06:53:55.302Z,25.65
2022-12-12T06:58:53.127Z,16.55
2022-12-12T07:03:51.175Z,19.00
2022-12-12T07:08:49.204Z,16.83
2022-12-12T07:13:47.357Z,19.95
2022-12-12T07:18:44.680Z,17.63
2022-12-12T07:23:42.247Z,19.25
2022-12-12T07:28:40.042Z,20.13
2022-12-12T07:33:43.797Z,17.70
2022-12-12T07:38:41.855Z,23.88
2022-12-12T07:43:44.686Z,15.95
2022-12-12T07:48:54.647Z,17.05
2022-12-12T07:53:53.132Z,14.48
2022-12-12T07:58:50.586Z,15.48
2022-12-12T08:03:49.204Z,13.98
2022-12-12T08:08:47.999Z,10.93
2022-12-12T08:13:45.398Z,14.75
2022-12-12T08:18:46.617Z,14.43
2022-12-12T08:23:45.283Z,14.70
2022-12-12T08:28:46.931Z,11.95
2022-12-12T08:33:44.480Z,13.63
2022-12-12T08:38:41.653Z,12.63
2022-12-12T08:43:40.949Z,16.50
2022-12-12T08:48:37.815Z,13.75
2022-12-12T08:53:35.628Z,13.07
2022-12-12T08:58:32.525Z,13.90
2022-12-12T09:03:30.486Z,13.98
2022-12-12T09:08:27.674Z,14.93
2022-12-12T09:13:25.310Z,15.60
2022-12-12T09:18:26.250Z,15.95
2022-12-12T09:23:25.094Z,16.23
2022-12-12T09:28:24.785Z,14.15
2022-12-12T09:33:26.206Z,15.57
2022-12-12T09:38:27.581Z,18.38
2022-12-12T09:43:29.890Z,16.50
2022-12-12T09:48:35.398Z,18.48
2022-12-12T09:53:36.828Z,18.13
2022-12-12T09:58:43.465Z,14.93
2022-12-12T10:04:02.025Z,17.55
2022-12-12T10:09:09.463Z,14.98
2022-12-12T10:14:12.477Z,13.98
2022-12-12T10:19:21.828Z,14.27
2022-12-12T10:24:30.101Z,16.77
2022-12-12T10:29:27.879Z,14.32
2022-12-12T10:34:39.383Z,13.82
2022-12-12T10:39:47.315Z,12.63
2022-12-12T10:45:28.818Z,13.38
2022-12-12T10:50:32.505Z,13.02
2022-12-12T10:55:44.252Z,17.02
2022-12-12T11:00:43.440Z,14.50
2022-12-12T11:05:41.269Z,13.95
2022-12-12T11:10:39.134Z,15.75
2022-12-12T11:15:41.153Z,13.35
2022-12-12T11:20:45.135Z,13.57
2022-12-12T11:25:43.380Z,13.30
2022-12-12T11:30:43.759Z,14.02
2022-12-12T11:35:47.417Z,13.10
2022-12-12T11:40:55.403Z,15.52
2022-12-12T11:46:00.262Z,13.90
2022-12-12T11:50:57.367Z,13.60
2022-12-12T11:56:06.867Z,12.57
2022-12-12T12:01:10.850Z,14.93
2022-12-12T12:06:30.248Z,14.57
2022-12-12T12:11:33.424Z,12.27
2022-12-12T12:16:46.083Z,14.55
2022-12-12T12:21:52.741Z,12.93
2022-12-12T12:27:02.824Z,14.65
2022-12-12T12:32:09.398Z,15.20
2022-12-12T12:37:24.009Z,13.85
2022-12-12T12:42:37.993Z,12.60
2022-12-12T12:47:46.950Z,10.35
2022-12-12T12:52:51.006Z,12.85
2022-12-12T12:57:50.721Z,10.77
2022-12-12T13:02:56.002Z,10.45
2022-12-12T13:07:59.775Z,8.65
2022-12-12T13:13:04.788Z,11.73
2022-12-12T13:18:04.235Z,10.30
2022-12-12T13:23:18.929Z,10.73
2022-12-12T13:28:23.842Z,10.25
2022-12-12T13:33:40.443Z,14.07
2022-12-12T13:38:38.080Z,15.77
2022-12-12T13:43:44.356Z,11.35
2022-12-12T13:48:47.387Z,12.68
2022-12-12T13:53:47.328Z,11.85
2022-12-12T13:58:45.105Z,11.88
2022-12-12T14:03:46.499Z,15.80
2022-12-12T14:08:49.110Z,12.32
2022-12-12T14:13:50.231Z,13.30
2022-12-12T14:19:01.685Z,13.98
2022-12-12T14:24:48.061Z,12.73
2022-12-12T14:29:45.895Z,15.45
2022-12-12T14:34:55.745Z,15.02
2022-12-12T14:40:01.098Z,13.18
2022-12-12T14:44:57.991Z,13.48
2022-12-12T14:50:11.238Z,12.60
2022-12-12T14:55:15.341Z,14.93
2022-12-12T15:00:17.361Z,14.80
2022-12-12T15:05:14.997Z,12.48
2022-12-12T15:10:24.130Z,15.20
2022-12-12T15:15:26.531Z,14.73
2022-12-12T15:20:25.767Z,14.00
2022-12-12T15:25:28.797Z,14.65
2022-12-12T15:30:32.043Z,18.65
2022-12-12T15:35:29.189Z,18.35
2022-12-12T15:40:29.568Z,16.85
2022-12-12T15:45:32.082Z,13.60
2022-12-12T15:50:36.363Z,15.00
2022-12-12T15:55:36.395Z,15.32
2022-12-12T16:00:37.337Z,15.13
2022-12-12T16:05:38.600Z,16.15
2022-12-12T16:10:36.495Z,17.67
2022-12-12T16:15:35.743Z,20.65
2022-12-12T16:20:34.261Z,16.15
2022-12-12T16:25:32.003Z,19.38
2022-12-12T16:30:29.739Z,17.17
2022-12-12T16:35:26.600Z,16.42
2022-12-12T16:40:23.496Z,18.92
2022-12-12T16:45:20.373Z,15.15
2022-12-12T16:50:18.082Z,15.23
2022-12-12T16:55:19.466Z,14.68
2022-12-12T17:00:17.295Z,13.75
2022-12-12T17:05:23.214Z,14.82
2022-12-12T17:10:23.888Z,12.15
2022-12-12T17:15:23.667Z,9.90
2022-12-12T17:20:22.115Z,9.30
2022-12-12T17:25:20.883Z,8.77
2022-12-12T17:30:18.317Z,7.32
2022-12-12T17:35:15.285Z,9.18
2022-12-12T17:40:13.495Z,10.05
2022-12-12T17:45:11.144Z,7.05
2022-12-12T17:50:10.848Z,7.40
2022-12-12T17:55:51.409Z,10.10
2022-12-12T18:00:26.344Z,8.82
2022-12-12T18:05:23.891Z,7.45
2022-12-12T18:10:20.849Z,10.48
2022-12-12T18:15:18.413Z,10.52
2022-12-12T18:20:19.505Z,12.18
2022-12-12T18:25:17.957Z,8.30
2022-12-12T18:30:15.362Z,8.80
2022-12-12T18:35:12.755Z,13.90
2022-12-12T18:40:11.415Z,13.20
2022-12-12T18:45:09.401Z,15.80
2022-12-12T18:50:07.263Z,14.30
2022-12-12T18:55:04.944Z,16.33
2022-12-12T19:00:06.015Z,14.13
2022-12-12T19:05:03.402Z,9.82
2022-12-12T19:10:00.379Z,10.20
2022-12-12T19:20:16.573Z,10.05
2022-12-12T19:25:14.310Z,10.75
2022-12-12T19:30:13.244Z,7.55
2022-12-12T19:35:11.788Z,9.57
2022-12-12T19:40:11.165Z,8.15
2022-12-12T19:45:09.617Z,8.20
2022-12-12T19:50:07.233Z,7.22
2022-12-12T19:55:04.685Z,8.30
2022-12-12T20:00:03.332Z,7.93
2022-12-12T20:05:06.345Z,6.80
2022-12-12T20:10:04.345Z,6.68
2022-12-12T20:15:02.142Z,7.80
2022-12-12T20:20:01.426Z,5.43
2022-12-12T20:24:58.892Z,4.95
2022-12-12T20:29:56.277Z,5.97
2022-12-12T20:34:53.506Z,4.60
2022-12-12T20:39:51.610Z,5.50
2022-12-12T20:44:49.429Z,5.35
2022-12-12T20:49:47.654Z,4.50
2022-12-12T20:54:44.777Z,5.30
2022-12-12T20:59:42.564Z,4.88
2022-12-12T21:04:39.889Z,5.50
2022-12-12T21:09:37.605Z,6.75
2022-12-12T21:14:40.567Z,7.82
2022-12-12T21:19:38.875Z,7.22
2022-12-12T21:24:36.030Z,7.60
2022-12-12T21:29:33.394Z,7.93
2022-12-12T21:34:30.609Z,8.13
2022-12-12T21:39:29.365Z,7.60
2022-12-12T21:44:26.734Z,9.05
2022-12-12T21:49:26.945Z,7.60
2022-12-12T21:54:25.000Z,9.80
2022-12-12T21:59:23.992Z,9.02
2022-12-12T22:04:21.323Z,7.40
2022-12-12T22:09:18.545Z,9.32
2022-12-12T22:14:16.691Z,9.38
2022-12-12T22:19:16.254Z,7.85
2022-12-12T22:24:15.038Z,7.38
2022-12-12T22:29:14.155Z,7.40
2022-12-12T22:34:13.271Z,6.63
2022-12-12T22:39:14.716Z,6.65
2022-12-12T22:44:15.825Z,6.53
2022-12-12T22:49:14.630Z,5.82
2022-12-12T22:54:13.091Z,6.82
2022-12-12T22:59:12.318Z,7.90
2022-12-12T23:04:11.672Z,6.80
2022-12-12T23:09:14.401Z,9.05
2022-12-12T23:14:14.546Z,9.02
2022-12-12T23:19:14.086Z,7.25
2022-12-12T23:24:11.283Z,9.27
2022-12-12T23:29:12.204Z,9.25
2022-12-12T23:34:14.307Z,7.53
2022-12-12T23:39:13.777Z,8.40
2022-12-12T23:44:13.103Z,9.15
2022-12-12T23:49:15.570Z,8.50
2022-12-12T23:54:14.024Z,8.80
2022-12-12T23:59:17.417Z,11.40
